createdAt,value
2022-11-06T00:01:45.050Z,98776.28
2022-11-06T00:03:49.670Z,98771.25
2022-11-06T00:06:07.085Z,98766.97
2022-11-06T00:08:12.196Z,98765.38
2022-11-06T00:10:18.268Z,98772.38
2022-11-06T00:12:25.631Z,98767.25
2022-11-06T00:14:30.358Z,98768.13
2022-11-06T00:16:35.444Z,98772.53
2022-11-06T00:18:41.980Z,98776.00
2022-11-06T00:20:46.794Z,98776.03
2022-11-06T00:22:51.636Z,98773.41
2022-11-06T00:24:56.456Z,98772.56
2022-11-06T00:27:01.192Z,98774.31
2022-11-06T00:29:09.672Z,98765.75
2022-11-06T00:31:16.106Z,98766.63
2022-11-06T00:33:20.912Z,98761.50
2022-11-06T00:35:25.658Z,98762.44
2022-11-06T00:37:30.477Z,98765.06
2022-11-06T00:39:35.210Z,98770.34
2022-11-06T00:41:39.964Z,98761.72
2022-11-06T00:43:45.211Z,98767.81
2022-11-06T00:45:52.505Z,98773.16
2022-11-06T00:47:57.557Z,98767.22
2022-11-06T00:50:02.356Z,98775.00
2022-11-06T00:52:07.119Z,98768.13
2022-11-06T00:54:15.513Z,98768.97
2022-11-06T00:56:22.193Z,98765.53
2022-11-06T00:58:26.972Z,98768.13
2022-11-06T01:00:34.077Z,98768.97
2022-11-06T01:02:41.631Z,98774.22
2022-11-06T01:04:47.224Z,98772.63
2022-11-06T01:06:54.107Z,98770.03
2022-11-06T01:09:00.094Z,98765.69
2022-11-06T01:11:12.505Z,98775.19
2022-11-06T01:13:17.304Z,98773.47
2022-11-06T01:15:22.194Z,98768.28
2022-11-06T01:17:26.948Z,98772.69
2022-11-06T01:19:34.335Z,98769.25
2022-11-06T01:21:41.948Z,98776.13
2022-11-06T01:23:47.193Z,98773.56
2022-11-06T01:26:00.015Z,98773.59
2022-11-06T01:28:04.946Z,98782.28
2022-11-06T01:30:11.664Z,98780.59
2022-11-06T01:32:16.453Z,98779.72
2022-11-06T01:34:21.550Z,98780.59
2022-11-06T01:36:30.310Z,98773.63
2022-11-06T01:38:35.050Z,98778.78
2022-11-06T01:40:43.140Z,98770.22
2022-11-06T01:42:47.862Z,98784.94
2022-11-06T01:45:32.233Z,98773.75
2022-11-06T01:47:37.047Z,98778.16
2022-11-06T01:49:41.832Z,98770.38
2022-11-06T01:51:53.581Z,98768.66
2022-11-06T01:53:59.948Z,98765.19
2022-11-06T01:56:07.561Z,98771.16
2022-11-06T01:58:16.301Z,98766.81
2022-11-06T02:00:22.849Z,98765.91
2022-11-06T02:02:27.841Z,98764.16
2022-11-06T02:04:37.330Z,98757.38
2022-11-06T02:06:42.109Z,98759.09
2022-11-06T02:08:49.761Z,98759.03
2022-11-06T02:10:55.494Z,98760.81
2022-11-06T02:13:15.728Z,98759.06
2022-11-06T02:15:28.273Z,98760.84
2022-11-06T02:17:44.371Z,98753.09
2022-11-06T02:20:02.168Z,98755.69
2022-11-06T02:22:29.429Z,98747.13
2022-11-06T02:24:53.440Z,98748.03
2022-11-06T02:27:10.459Z,98741.13
2022-11-06T02:29:21.134Z,98733.34
2022-11-06T02:31:29.371Z,98731.81
2022-11-06T02:33:39.635Z,98732.75
2022-11-06T02:35:48.389Z,98740.56
2022-11-06T02:37:57.940Z,98738.03
2022-11-06T02:40:07.359Z,98741.53
2022-11-06T02:42:18.802Z,98743.31
2022-11-06T02:44:27.726Z,98742.63
2022-11-06T02:46:37.229Z,98736.59
2022-11-06T02:48:48.164Z,98738.38
2022-11-06T02:50:54.947Z,98732.44
2022-11-06T02:53:04.747Z,98728.25
2022-11-06T02:55:14.134Z,98726.69
2022-11-06T02:57:23.683Z,98731.16
2022-11-06T02:59:33.366Z,98725.28
2022-11-06T03:01:42.013Z,98733.97
2022-11-06T03:03:53.297Z,98732.25
2022-11-06T03:06:02.405Z,98721.91
2022-11-06T03:08:13.869Z,98728.84
2022-11-06T03:10:19.780Z,98729.81
2022-11-06T03:12:31.207Z,98724.63
2022-11-06T03:14:42.645Z,98719.47
2022-11-06T03:16:55.877Z,98717.78
2022-11-06T03:19:06.932Z,98722.22
2022-11-06T03:21:23.882Z,98713.63
2022-11-06T03:23:36.779Z,98718.94
2022-11-06T03:25:47.948Z,98709.56
2022-11-06T03:28:04.580Z,98714.84
2022-11-06T03:30:16.585Z,98712.25
2022-11-06T03:32:26.967Z,98709.84
2022-11-06T03:34:35.196Z,98719.41
2022-11-06T03:36:44.939Z,98726.44
2022-11-06T03:38:54.190Z,98710.97
2022-11-06T03:41:05.522Z,98712.72
2022-11-06T03:43:17.196Z,98714.50
2022-11-06T03:45:25.272Z,98709.38
2022-11-06T03:47:34.959Z,98716.31
2022-11-06T03:49:44.919Z,98717.16
2022-11-06T03:51:55.886Z,98712.78
2022-11-06T03:54:05.505Z,98711.03
2022-11-06T03:56:15.320Z,98704.84
2022-11-06T03:58:26.949Z,98698.88
2022-11-06T04:00:32.657Z,98708.25
2022-11-06T04:02:41.003Z,98702.16
2022-11-06T04:04:52.184Z,98696.00
2022-11-06T04:07:02.490Z,98695.94
2022-11-06T04:09:22.967Z,98697.66
2022-11-06T04:11:42.968Z,98689.84
2022-11-06T04:14:03.015Z,98689.09
2022-11-06T04:16:09.752Z,98686.56
2022-11-06T04:18:16.228Z,98689.19
2022-11-06T04:20:37.115Z,98691.78
2022-11-06T04:22:50.926Z,98693.47
2022-11-06T04:25:18.861Z,98696.91
2022-11-06T04:27:39.808Z,98693.47
2022-11-06T04:30:25.757Z,98683.19
2022-11-06T04:32:41.090Z,98685.84
2022-11-06T04:34:51.426Z,98690.16
2022-11-06T04:37:08.113Z,98688.38
2022-11-06T04:39:20.806Z,98694.38
2022-11-06T04:41:37.137Z,98695.28
2022-11-06T04:43:46.896Z,98694.44
2022-11-06T04:45:58.287Z,98688.38
2022-11-06T04:48:04.827Z,98689.22
2022-11-06T04:50:12.318Z,98688.38
2022-11-06T04:52:21.629Z,98685.91
2022-11-06T04:54:26.981Z,98688.66
2022-11-06T04:56:35.224Z,98686.81
2022-11-06T04:58:41.276Z,98684.16
2022-11-06T05:00:48.834Z,98683.25
2022-11-06T05:02:56.233Z,98682.34
2022-11-06T05:05:01.128Z,98681.50
2022-11-06T05:07:06.317Z,98674.53
2022-11-06T05:09:11.109Z,98674.50
2022-11-06T05:11:16.052Z,98669.25
2022-11-06T05:13:20.763Z,98679.50
2022-11-06T05:15:25.567Z,98666.53
2022-11-06T05:17:35.342Z,98661.41
2022-11-06T05:19:43.808Z,98654.63
2022-11-06T05:22:00.986Z,98649.47
2022-11-06T05:24:06.389Z,98658.19
2022-11-06T05:26:10.943Z,98646.16
2022-11-06T05:28:15.933Z,98648.81
2022-11-06T05:30:20.906Z,98646.28
2022-11-06T05:32:25.715Z,98637.59
2022-11-06T05:34:30.454Z,98626.38
2022-11-06T05:36:38.140Z,98621.97
2022-11-06T05:38:43.006Z,98630.59
2022-11-06T05:40:47.766Z,98629.88
2022-11-06T05:42:52.548Z,98620.47
2022-11-06T05:44:57.398Z,98614.41
2022-11-06T05:47:02.131Z,98618.72
2022-11-06T05:49:07.032Z,98621.38
2022-11-06T05:51:12.293Z,98622.25
2022-11-06T05:53:19.713Z,98624.88
2022-11-06T05:55:24.533Z,98611.09
2022-11-06T05:57:29.387Z,98607.81
2022-11-06T05:59:34.120Z,98617.41
2022-11-06T06:01:39.220Z,98613.16
2022-11-06T06:03:43.941Z,98612.44
2022-11-06T06:05:49.119Z,98609.09
2022-11-06T06:07:53.930Z,98608.25
2022-11-06T06:10:01.319Z,98616.88
2022-11-06T06:12:06.211Z,98606.72
2022-11-06T06:14:11.007Z,98613.72
2022-11-06T06:16:15.973Z,98619.75
2022-11-06T06:18:20.847Z,98623.06
2022-11-06T06:20:25.587Z,98620.66
2022-11-06T06:22:30.319Z,98628.50
2022-11-06T06:24:35.460Z,98628.56
2022-11-06T06:26:43.207Z,98629.41
2022-11-06T06:28:50.849Z,98626.03
2022-11-06T06:31:01.044Z,98626.91
2022-11-06T06:33:08.340Z,98627.81
2022-11-06T06:35:13.374Z,98630.41
2022-11-06T06:37:20.174Z,98634.66
2022-11-06T06:39:25.933Z,98640.56
2022-11-06T06:41:30.749Z,98645.63
2022-11-06T06:43:38.732Z,98645.47
2022-11-06T06:45:43.568Z,98652.22
2022-11-06T06:47:48.346Z,98655.63
2022-11-06T06:49:53.102Z,98664.22
2022-11-06T06:51:58.077Z,98670.19
2022-11-06T06:54:03.162Z,98677.88
2022-11-06T06:56:08.935Z,98683.94
2022-11-06T06:58:17.885Z,98692.50
2022-11-06T07:00:25.687Z,98697.53
2022-11-06T07:02:30.488Z,98699.13
2022-11-06T07:04:35.345Z,98692.09
2022-11-06T07:06:40.081Z,98688.53
2022-11-06T07:08:44.819Z,98680.63
2022-11-06T07:10:49.606Z,98679.88
2022-11-06T07:12:54.424Z,98682.41
2022-11-06T07:14:59.221Z,98678.09
2022-11-06T07:17:06.655Z,98666.03
2022-11-06T07:19:11.431Z,98656.59
2022-11-06T07:21:16.543Z,98661.13
2022-11-06T07:23:21.323Z,98663.81
2022-11-06T07:25:26.099Z,98650.91
2022-11-06T07:27:30.932Z,98650.06
2022-11-06T07:29:35.905Z,98659.38
2022-11-06T07:31:40.696Z,98664.50
2022-11-06T07:33:48.049Z,98655.91
2022-11-06T07:35:52.817Z,98657.81
2022-11-06T07:37:57.710Z,98661.34
2022-11-06T07:40:02.421Z,98651.13
2022-11-06T07:42:07.575Z,98658.16
2022-11-06T07:44:14.864Z,98657.31
2022-11-06T07:46:19.711Z,98659.84
2022-11-06T07:48:24.460Z,98650.41
2022-11-06T07:50:32.214Z,98656.44
2022-11-06T07:52:37.080Z,98653.03
2022-11-06T07:54:42.061Z,98640.97
2022-11-06T07:56:46.853Z,98640.06
2022-11-06T07:58:51.645Z,98636.59
2022-11-06T08:00:58.335Z,98638.25
2022-11-06T08:03:03.274Z,98644.94
2022-11-06T08:05:08.761Z,98631.13
2022-11-06T08:07:16.249Z,98626.75
2022-11-06T08:09:21.830Z,98627.63
2022-11-06T08:11:27.728Z,98631.91
2022-11-06T08:13:34.017Z,98627.53
2022-11-06T08:15:40.321Z,98632.63
2022-11-06T08:17:45.072Z,98630.00
2022-11-06T08:19:49.877Z,98624.81
2022-11-06T08:21:54.680Z,98613.56
2022-11-06T08:24:02.153Z,98596.97
2022-11-06T08:26:08.639Z,98591.78
2022-11-06T08:28:13.985Z,98589.19
2022-11-06T08:30:19.167Z,98584.72
2022-11-06T08:32:24.078Z,98580.34
2022-11-06T08:34:28.783Z,98581.31
2022-11-06T08:36:33.667Z,98595.78
2022-11-06T08:38:39.133Z,98585.25
2022-11-06T08:40:52.272Z,98587.63
2022-11-06T08:43:01.968Z,98583.97
2022-11-06T08:45:07.760Z,98580.41
2022-11-06T08:47:12.750Z,98574.13
2022-11-06T08:49:17.543Z,98579.44
2022-11-06T08:51:22.326Z,98583.00
2022-11-06T08:53:27.135Z,98575.16
2022-11-06T08:55:31.923Z,98568.13
2022-11-06T08:57:39.379Z,98567.88
2022-11-06T08:59:44.200Z,98567.06
2022-11-06T09:01:49.116Z,98567.66
2022-11-06T09:03:54.155Z,98559.72
2022-11-06T09:05:59.029Z,98563.16
2022-11-06T09:08:04.122Z,98555.00
2022-11-06T09:10:09.341Z,98546.53
2022-11-06T09:12:14.131Z,98536.84
2022-11-06T09:14:21.559Z,98536.69
2022-11-06T09:16:26.807Z,98534.88
2022-11-06T09:18:31.630Z,98538.03
2022-11-06T09:20:36.439Z,98524.16
2022-11-06T09:22:41.633Z,98527.44
2022-11-06T09:25:04.085Z,98526.56
2022-11-06T09:27:09.368Z,98515.88
2022-11-06T09:29:14.151Z,98511.31
2022-11-06T09:31:21.549Z,98498.84
2022-11-06T09:33:26.345Z,98488.44
2022-11-06T09:35:33.108Z,98486.41
2022-11-06T09:37:38.739Z,98490.69
2022-11-06T09:39:43.586Z,98489.88
2022-11-06T09:41:56.584Z,98498.38
2022-11-06T09:44:16.448Z,98487.94
2022-11-06T09:46:29.172Z,98481.69
2022-11-06T09:48:38.729Z,98478.00
2022-11-06T09:50:50.057Z,98475.94
2022-11-06T09:53:12.767Z,98481.03
2022-11-06T09:55:21.905Z,98473.88
2022-11-06T09:57:34.027Z,98465.91
2022-11-06T09:59:42.585Z,98462.34
2022-11-06T10:01:53.503Z,98457.63
2022-11-06T10:04:01.379Z,98452.41
2022-11-06T10:06:06.503Z,98458.31
2022-11-06T10:08:18.659Z,98458.78
2022-11-06T10:10:29.789Z,98449.69
2022-11-06T10:12:42.738Z,98458.34
2022-11-06T10:15:01.556Z,98448.56
2022-11-06T10:17:18.557Z,98454.81
2022-11-06T10:19:28.540Z,98454.22
2022-11-06T10:21:43.033Z,98459.41
2022-11-06T10:23:53.144Z,98450.94
2022-11-06T10:26:10.359Z,98451.31
2022-11-06T10:28:32.771Z,98442.56
2022-11-06T10:30:47.004Z,98427.66
2022-11-06T10:33:18.708Z,98420.81
2022-11-06T10:35:27.379Z,98420.66
2022-11-06T10:37:35.515Z,98426.13
2022-11-06T10:39:41.306Z,98415.56
2022-11-06T10:41:50.424Z,98411.97
2022-11-06T10:44:00.098Z,98417.84
2022-11-06T10:46:14.964Z,98415.22
2022-11-06T10:48:31.703Z,98410.06
2022-11-06T10:50:49.682Z,98408.47
2022-11-06T10:52:59.443Z,98409.72
2022-11-06T10:55:42.498Z,98407.25
2022-11-06T10:57:53.523Z,98406.41
2022-11-06T10:59:59.186Z,98405.97
2022-11-06T11:02:05.585Z,98415.88
2022-11-06T11:04:13.155Z,98406.81
2022-11-06T11:06:17.969Z,98414.13
2022-11-06T11:08:40.461Z,98410.59
2022-11-06T11:11:00.776Z,98408.84
2022-11-06T11:13:09.250Z,98418.44
2022-11-06T11:15:17.549Z,98413.06
2022-11-06T11:17:23.494Z,98412.00
2022-11-06T11:19:38.286Z,98396.00
2022-11-06T11:21:55.700Z,98397.69
2022-11-06T11:24:11.559Z,98397.00
2022-11-06T11:26:22.779Z,98397.31
2022-11-06T11:28:33.206Z,98387.63
2022-11-06T11:30:38.042Z,98387.28
2022-11-06T11:32:42.962Z,98375.84
2022-11-06T11:34:56.809Z,98371.41
2022-11-06T11:37:04.565Z,98366.09
2022-11-06T11:39:09.670Z,98363.38
2022-11-06T11:41:16.765Z,98361.88
2022-11-06T11:43:29.860Z,98358.31
2022-11-06T11:45:34.689Z,98359.03
2022-11-06T11:47:41.733Z,98353.69
2022-11-06T11:49:46.654Z,98345.34
2022-11-06T11:51:57.717Z,98351.13
2022-11-06T11:54:20.723Z,98346.69
2022-11-06T11:56:42.864Z,98339.19
2022-11-06T11:58:56.415Z,98341.78
2022-11-06T12:01:04.916Z,98339.88
2022-11-06T12:03:15.393Z,98334.25
2022-11-06T12:05:25.503Z,98321.06
2022-11-06T12:07:35.608Z,98319.38
2022-11-06T12:09:46.459Z,98308.97
2022-11-06T12:11:51.659Z,98305.53
2022-11-06T12:14:21.550Z,98296.06
2022-11-06T12:16:26.459Z,98295.41
2022-11-06T12:18:35.891Z,98288.47
2022-11-06T12:20:45.328Z,98292.47
2022-11-06T12:22:55.346Z,98284.22
2022-11-06T12:25:05.563Z,98273.47
2022-11-06T12:27:15.988Z,98274.06
2022-11-06T12:29:25.115Z,98270.56
2022-11-06T12:31:39.642Z,98269.34
2022-11-06T12:34:05.717Z,98259.50
2022-11-06T12:36:15.610Z,98254.91
2022-11-06T12:38:33.105Z,98255.91
2022-11-06T12:40:41.928Z,98245.91
2022-11-06T12:43:00.692Z,98247.22
2022-11-06T12:45:05.545Z,98235.00
2022-11-06T12:47:25.360Z,98231.19
2022-11-06T12:49:50.957Z,98221.44
2022-11-06T12:52:09.550Z,98217.88
2022-11-06T12:54:39.632Z,98215.19
2022-11-06T12:56:54.663Z,98207.59
2022-11-06T12:59:08.812Z,98208.34
2022-11-06T13:01:22.922Z,98196.34
2022-11-06T13:03:44.479Z,98181.09
2022-11-06T13:05:58.403Z,98175.03
2022-11-06T13:08:18.332Z,98178.84
2022-11-06T13:10:43.695Z,98177.22
2022-11-06T13:13:00.649Z,98174.44
2022-11-06T13:15:15.616Z,98175.94
2022-11-06T13:17:27.452Z,98173.81
2022-11-06T13:19:37.010Z,98174.22
2022-11-06T13:22:14.824Z,98170.06
2022-11-06T13:24:25.314Z,98150.81
2022-11-06T13:26:38.100Z,98151.78
2022-11-06T13:28:46.718Z,98152.69
2022-11-06T13:30:52.773Z,98152.63
2022-11-06T13:33:08.839Z,98147.09
2022-11-06T13:35:18.118Z,98145.47
2022-11-06T13:37:39.274Z,98134.94
2022-11-06T13:39:47.887Z,98132.41
2022-11-06T13:41:55.889Z,98129.03
2022-11-06T13:44:04.505Z,98128.63
2022-11-06T13:46:17.878Z,98126.28
2022-11-06T13:48:37.369Z,98126.59
2022-11-06T13:50:50.332Z,98123.13
2022-11-06T13:52:59.751Z,98127.63
2022-11-06T13:55:14.582Z,98114.63
2022-11-06T13:57:39.520Z,98096.69
2022-11-06T14:00:01.236Z,98096.72
2022-11-06T14:02:24.496Z,98082.97
2022-11-06T14:04:52.384Z,98080.41
2022-11-06T14:07:02.070Z,98083.03
2022-11-06T14:09:11.572Z,98080.03
2022-11-06T14:11:19.146Z,98082.34
2022-11-06T14:13:32.265Z,98082.13
2022-11-06T14:15:42.040Z,98084.28
2022-11-06T14:17:57.699Z,98087.41
2022-11-06T14:20:28.865Z,98092.06
2022-11-06T14:22:36.443Z,98088.16
2022-11-06T14:24:42.100Z,98090.41
2022-11-06T14:26:48.839Z,98086.03
2022-11-06T14:28:56.356Z,98087.81
2022-11-06T14:31:21.829Z,98087.81
2022-11-06T14:33:59.080Z,98078.50
2022-11-06T14:36:15.669Z,98080.41
2022-11-06T14:38:44.469Z,98072.84
2022-11-06T14:40:49.434Z,98073.78
2022-11-06T14:42:54.415Z,98068.53
2022-11-06T14:45:05.291Z,98062.38
2022-11-06T14:47:21.927Z,98061.72
2022-11-06T14:49:36.182Z,98066.16
2022-11-06T14:51:41.056Z,98062.81
2022-11-06T14:53:51.218Z,98070.41
2022-11-06T14:56:01.901Z,98070.94
2022-11-06T14:58:20.844Z,98077.78
2022-11-06T15:00:46.519Z,98074.34
2022-11-06T15:02:51.869Z,98071.50
2022-11-06T15:05:01.518Z,98076.41
2022-11-06T15:07:11.222Z,98071.78
2022-11-06T15:09:18.497Z,98074.44
2022-11-06T15:11:57.786Z,98080.28
2022-11-06T15:14:32.345Z,98074.13
2022-11-06T15:16:43.520Z,98075.88
2022-11-06T15:18:48.916Z,98076.78
2022-11-06T15:20:58.180Z,98077.66
2022-11-06T15:23:10.119Z,98085.44
2022-11-06T15:25:23.638Z,98079.50
2022-11-06T15:27:32.070Z,98079.50
2022-11-06T15:29:42.106Z,98078.91
2022-11-06T15:31:51.876Z,98082.56
2022-11-06T15:34:02.831Z,98074.00
2022-11-06T15:36:13.395Z,98074.22
2022-11-06T15:38:22.277Z,98079.59
2022-11-06T15:40:31.422Z,98068.66
2022-11-06T15:42:38.684Z,98055.97
2022-11-06T15:44:44.967Z,98061.34
2022-11-06T15:46:59.111Z,98070.16
2022-11-06T15:49:20.147Z,98060.66
2022-11-06T15:51:27.248Z,98062.78
2022-11-06T15:53:38.279Z,98061.94
2022-11-06T15:55:51.139Z,98057.03
2022-11-06T15:57:55.961Z,98068.50
2022-11-06T16:00:10.816Z,98062.47
2022-11-06T16:02:22.433Z,98068.69
2022-11-06T16:04:28.443Z,98060.22
2022-11-06T16:06:34.194Z,98060.31
2022-11-06T16:08:41.428Z,98068.13
2022-11-06T16:10:48.391Z,98069.81
2022-11-06T16:12:54.429Z,98070.72
2022-11-06T16:14:59.226Z,98066.38
2022-11-06T16:17:12.610Z,98062.78
2022-11-06T16:19:30.602Z,98057.53
2022-11-06T16:21:38.054Z,98052.41
2022-11-06T16:23:47.327Z,98047.31
2022-11-06T16:25:52.452Z,98053.41
2022-11-06T16:27:57.420Z,98044.94
2022-11-06T16:30:05.187Z,98054.66
2022-11-06T16:32:12.197Z,98053.72
2022-11-06T16:34:38.803Z,98056.06
2022-11-06T16:36:59.996Z,98058.66
2022-11-06T16:39:48.838Z,98060.38
2022-11-06T16:42:04.757Z,98063.91
2022-11-06T16:44:31.272Z,98069.09
2022-11-06T16:47:15.156Z,98072.41
2022-11-06T16:49:39.059Z,98072.47
2022-11-06T16:51:43.816Z,98072.47
2022-11-06T16:53:58.233Z,98068.84
2022-11-06T16:56:04.866Z,98069.66
2022-11-06T16:58:18.744Z,98063.50
2022-11-06T17:00:29.338Z,98057.47
2022-11-06T17:02:38.742Z,98056.59
2022-11-06T17:04:46.293Z,98054.00
2022-11-06T17:06:52.083Z,98051.41
2022-11-06T17:09:09.167Z,98049.63
2022-11-06T17:11:21.929Z,98046.06
2022-11-06T17:13:29.939Z,98044.31
2022-11-06T17:15:34.765Z,98044.41
2022-11-06T17:17:40.144Z,98049.63
2022-11-06T17:19:47.619Z,98058.19
2022-11-06T17:21:53.113Z,98066.78
2022-11-06T17:24:12.082Z,98059.75
2022-11-06T17:26:21.398Z,98063.19
2022-11-06T17:28:26.404Z,98065.66
2022-11-06T17:30:31.389Z,98061.34
2022-11-06T17:32:36.260Z,98056.16
2022-11-06T17:34:41.121Z,98061.28
2022-11-06T17:36:48.530Z,98064.72
2022-11-06T17:38:53.776Z,98063.81
2022-11-06T17:40:58.298Z,98065.59
2022-11-06T17:43:03.143Z,98063.00
2022-11-06T17:45:09.148Z,98062.06
2022-11-06T17:47:13.912Z,98061.28
2022-11-06T17:49:19.059Z,98058.69
2022-11-06T17:51:36.520Z,98056.31
2022-11-06T17:53:43.908Z,98060.78
2022-11-06T17:55:48.685Z,98053.00
2022-11-06T17:57:53.594Z,98065.97
2022-11-06T17:59:58.373Z,98069.41
2022-11-06T18:02:03.693Z,98070.13
2022-11-06T18:04:09.871Z,98070.78
2022-11-06T18:06:15.710Z,98067.19
2022-11-06T18:08:20.473Z,98067.19
2022-11-06T18:10:30.695Z,98066.22
2022-11-06T18:12:35.956Z,98080.03
2022-11-06T18:14:40.934Z,98076.63
2022-11-06T18:16:45.804Z,98071.38
2022-11-06T18:18:50.822Z,98047.03
2022-11-06T18:20:55.745Z,98049.69
2022-11-06T18:23:00.595Z,98048.91
2022-11-06T18:25:05.322Z,98043.78
2022-11-06T18:27:12.813Z,98045.78
2022-11-06T18:29:17.677Z,98037.19
2022-11-06T18:31:22.579Z,98039.78
2022-11-06T18:33:27.529Z,98044.19
2022-11-06T18:35:32.183Z,98041.81
2022-11-06T18:37:36.919Z,98035.72
2022-11-06T18:39:42.480Z,98037.47
2022-11-06T18:41:47.394Z,98035.84
2022-11-06T18:43:58.778Z,98033.47
2022-11-06T18:46:06.720Z,98033.56
2022-11-06T18:48:13.775Z,98023.41
2022-11-06T18:50:20.821Z,98030.41
2022-11-06T18:52:51.752Z,98043.34
2022-11-06T18:54:50.638Z,98047.41
2022-11-06T18:56:55.429Z,98040.44
2022-11-06T18:59:03.167Z,98038.66
2022-11-06T19:01:08.803Z,98024.28
2022-11-06T19:03:13.988Z,98022.47
2022-11-06T19:05:19.296Z,98007.09
2022-11-06T19:07:23.808Z,98010.03
2022-11-06T19:09:29.004Z,98009.38
2022-11-06T19:11:34.036Z,98007.88
2022-11-06T19:13:42.119Z,98011.31
2022-11-06T19:15:53.849Z,98018.22
2022-11-06T19:17:58.685Z,98026.63
2022-11-06T19:20:04.180Z,98028.19
2022-11-06T19:22:10.679Z,98034.06
2022-11-06T19:24:15.497Z,98028.84
2022-11-06T19:26:36.325Z,98036.44
2022-11-06T19:28:41.724Z,98039.03
2022-11-06T19:30:46.348Z,98051.19
2022-11-06T19:32:53.720Z,98049.28
2022-11-06T19:34:58.555Z,98058.66
2022-11-06T19:37:03.379Z,98054.19
2022-11-06T19:39:09.198Z,98049.69
2022-11-06T19:41:14.303Z,98045.22
2022-11-06T19:43:19.119Z,98047.81
2022-11-06T19:45:25.071Z,98043.63
2022-11-06T19:47:32.379Z,98053.41
2022-11-06T19:49:39.753Z,98047.03
2022-11-06T19:51:44.693Z,98046.00
2022-11-06T19:53:49.524Z,98049.38
2022-11-06T19:55:56.108Z,98047.94
2022-11-06T19:58:01.024Z,98048.94
2022-11-06T20:00:11.151Z,98050.75
2022-11-06T20:02:17.224Z,98048.06
2022-11-06T20:04:22.375Z,98050.56
2022-11-06T20:06:30.239Z,98053.00
2022-11-06T20:08:35.118Z,98054.69
2022-11-06T20:10:41.563Z,98057.25
2022-11-06T20:12:46.435Z,98058.91
2022-11-06T20:14:51.242Z,98072.69
2022-11-06T20:16:58.667Z,98073.41
2022-11-06T20:19:03.410Z,98076.69
2022-11-06T20:21:10.423Z,98061.88
2022-11-06T20:23:20.831Z,98060.88
2022-11-06T20:25:25.736Z,98051.81
2022-11-06T20:27:30.517Z,98053.59
2022-11-06T20:29:35.745Z,98053.59
2022-11-06T20:31:41.112Z,98051.22
2022-11-06T20:33:45.950Z,98054.69
2022-11-06T20:35:50.816Z,98060.78
2022-11-06T20:37:55.574Z,98059.03
2022-11-06T20:40:03.045Z,98064.94
2022-11-06T20:42:07.930Z,98057.97
2022-11-06T20:44:12.659Z,98056.19
2022-11-06T20:46:18.620Z,98053.56
2022-11-06T20:48:23.548Z,98045.78
2022-11-06T20:50:28.372Z,98054.56
2022-11-06T20:52:33.277Z,98057.28
2022-11-06T20:54:42.386Z,98057.25
2022-11-06T20:56:52.896Z,98064.28
2022-11-06T20:58:58.938Z,98081.66
2022-11-06T21:01:04.888Z,98089.34
2022-11-06T21:03:09.702Z,98097.06
2022-11-06T21:05:14.946Z,98098.66
2022-11-06T21:07:20.267Z,98096.78
2022-11-06T21:09:25.035Z,98101.00
2022-11-06T21:11:30.500Z,98102.81
2022-11-06T21:13:37.950Z,98101.16
2022-11-06T21:15:42.730Z,98101.06
2022-11-06T21:17:47.438Z,98099.31
2022-11-06T21:19:52.248Z,98096.53
2022-11-06T21:21:58.596Z,98095.53
2022-11-06T21:24:04.816Z,98100.53
2022-11-06T21:26:12.427Z,98104.66
2022-11-06T21:28:17.570Z,98104.59
2022-11-06T21:30:25.905Z,98107.84
2022-11-06T21:32:30.859Z,98111.34
2022-11-06T21:34:35.653Z,98114.78
2022-11-06T21:36:40.897Z,98114.69
2022-11-06T21:38:45.741Z,98115.63
2022-11-06T21:40:50.588Z,98112.16
2022-11-06T21:42:55.339Z,98113.91
2022-11-06T21:45:00.117Z,98116.50
2022-11-06T21:47:07.561Z,98113.91
2022-11-06T21:49:12.944Z,98113.97
2022-11-06T21:51:18.180Z,98119.28
2022-11-06T21:53:35.812Z,98109.81
2022-11-06T21:55:54.004Z,98114.13
2022-11-06T21:57:58.833Z,98115.84
2022-11-06T22:00:03.688Z,98115.72
2022-11-06T22:02:19.386Z,98112.19
2022-11-06T22:04:24.460Z,98120.00
2022-11-06T22:06:30.804Z,98120.00
2022-11-06T22:08:39.012Z,98122.78
2022-11-06T22:10:43.759Z,98113.22
2022-11-06T22:12:48.508Z,98110.63
2022-11-06T22:14:53.264Z,98110.69
2022-11-06T22:16:58.033Z,98109.72
2022-11-06T22:19:06.835Z,98114.78
2022-11-06T22:21:13.280Z,98122.53
2022-11-06T22:23:18.047Z,98117.41
2022-11-06T22:25:22.940Z,98126.22
2022-11-06T22:27:27.686Z,98127.06
2022-11-06T22:29:32.469Z,98140.75
2022-11-06T22:31:37.498Z,98139.88
2022-11-06T22:33:42.921Z,98137.09
2022-11-06T22:35:50.287Z,98132.72
2022-11-06T22:37:55.135Z,98132.81
2022-11-06T22:39:59.896Z,98140.84
2022-11-06T22:42:04.641Z,98125.31
2022-11-06T22:44:10.411Z,98131.41
2022-11-06T22:46:15.976Z,98134.13
2022-11-06T22:48:21.017Z,98135.88
2022-11-06T22:50:25.774Z,98134.84
2022-11-06T22:52:33.113Z,98137.38
2022-11-06T22:54:38.865Z,98146.03
2022-11-06T22:56:43.835Z,98146.88
2022-11-06T22:58:48.766Z,98148.63
2022-11-06T23:00:54.539Z,98152.13
2022-11-06T23:02:59.364Z,98150.47
2022-11-06T23:05:04.138Z,98158.47
2022-11-06T23:07:08.887Z,98164.59
2022-11-06T23:09:17.145Z,98162.00
2022-11-06T23:11:22.113Z,98167.19
2022-11-06T23:13:26.977Z,98172.41
2022-11-06T23:15:31.712Z,98173.97
2022-11-06T23:17:38.796Z,98171.38
2022-11-06T23:19:43.512Z,98173.13
2022-11-06T23:21:48.535Z,98171.59
2022-11-06T23:23:53.343Z,98169.13
2022-11-06T23:26:00.672Z,98168.31
2022-11-06T23:28:05.495Z,98164.94
2022-11-06T23:30:12.428Z,98170.03
2022-11-06T23:32:17.150Z,98171.66
2022-11-06T23:34:21.957Z,98173.31
2022-11-06T23:36:26.723Z,98166.13
2022-11-06T23:38:31.474Z,98159.97
2022-11-06T23:40:36.245Z,98155.63
2022-11-06T23:42:44.161Z,98152.78
2022-11-06T23:45:01.838Z,98157.94
2022-11-06T23:47:06.713Z,98165.50
2022-11-06T23:49:11.480Z,98164.34
2022-11-06T23:51:16.441Z,98164.19
2022-11-06T23:53:21.396Z,98169.06
2022-11-06T23:55:26.167Z,98174.75
2022-11-06T23:57:30.929Z,98174.44
2022-11-06T23:59:38.702Z,98180.31
